sensor_id;sensor_type;location;lat;lon;timestamp;P1;durP1;ratioP1;P2;durP2;ratioP2
75135;SDS011;63707;52.212;9.540;2023-10-31T13:17:12;8.00;;;4.30;;
75135;SDS011;63707;52.212;9.540;2023-10-31T13:19:38;6.72;;;4.10;;
75135;SDS011;63707;52.212;9.540;2023-10-31T13:22:03;6.53;;;4.32;;
75135;SDS011;63707;52.212;9.540;2023-10-31T13:24:29;7.95;;;4.80;;
75135;SDS011;63707;52.212;9.540;2023-10-31T13:26:54;7.18;;;4.07;;
75135;SDS011;63707;52.212;9.540;2023-10-31T13:29:20;6.55;;;3.92;;
75135;SDS011;63707;52.212;9.540;2023-10-31T13:31:46;6.40;;;4.18;;
75135;SDS011;63707;52.212;9.540;2023-10-31T13:34:12;4.88;;;3.90;;
75135;SDS011;63707;52.212;9.540;2023-10-31T13:36:38;5.47;;;4.10;;
75135;SDS011;63707;52.212;9.540;2023-10-31T13:39:03;5.85;;;4.30;;
75135;SDS011;63707;52.212;9.540;2023-10-31T13:41:29;14.85;;;5.13;;
75135;SDS011;63707;52.212;9.540;2023-10-31T13:43:55;6.57;;;4.38;;
75135;SDS011;63707;52.212;9.540;2023-10-31T13:46:20;6.20;;;4.35;;
75135;SDS011;63707;52.212;9.540;2023-10-31T13:48:46;5.93;;;4.20;;
75135;SDS011;63707;52.212;9.540;2023-10-31T13:51:13;6.32;;;3.90;;
75135;SDS011;63707;52.212;9.540;2023-10-31T13:53:38;7.25;;;4.28;;
75135;SDS011;63707;52.212;9.540;2023-10-31T13:56:04;6.32;;;4.43;;
75135;SDS011;63707;52.212;9.540;2023-10-31T13:58:30;4.68;;;3.75;;
75135;SDS011;63707;52.212;9.540;2023-10-31T14:00:55;8.00;;;4.05;;
75135;SDS011;63707;52.212;9.540;2023-10-31T14:03:20;4.82;;;3.80;;
75135;SDS011;63707;52.212;9.540;2023-10-31T14:05:47;7.55;;;4.38;;
75135;SDS011;63707;52.212;9.540;2023-10-31T14:08:14;8.43;;;3.92;;
75135;SDS011;63707;52.212;9.540;2023-10-31T14:10:39;6.88;;;4.60;;
75135;SDS011;63707;52.212;9.540;2023-10-31T14:13:05;7.32;;;4.13;;
75135;SDS011;63707;52.212;9.540;2023-10-31T14:15:30;15.38;;;8.32;;
75135;SDS011;63707;52.212;9.540;2023-10-31T14:17:57;7.93;;;4.47;;
75135;SDS011;63707;52.212;9.540;2023-10-31T14:20:23;8.38;;;3.97;;
75135;SDS011;63707;52.212;9.540;2023-10-31T14:22:49;8.20;;;4.10;;
75135;SDS011;63707;52.212;9.540;2023-10-31T14:25:17;6.65;;;4.13;;
75135;SDS011;63707;52.212;9.540;2023-10-31T14:27:43;8.50;;;4.43;;
75135;SDS011;63707;52.212;9.540;2023-10-31T14:30:09;5.75;;;4.18;;
75135;SDS011;63707;52.212;9.540;2023-10-31T14:32:35;8.18;;;4.20;;
75135;SDS011;63707;52.212;9.540;2023-10-31T14:35:01;6.70;;;4.45;;
75135;SDS011;63707;52.212;9.540;2023-10-31T14:37:26;6.10;;;3.72;;
75135;SDS011;63707;52.212;9.540;2023-10-31T14:39:52;7.40;;;4.70;;
75135;SDS011;63707;52.212;9.540;2023-10-31T14:42:19;7.72;;;4.45;;
75135;SDS011;63707;52.212;9.540;2023-10-31T14:44:48;7.82;;;4.63;;
75135;SDS011;63707;52.212;9.540;2023-10-31T14:47:13;8.98;;;6.05;;
75135;SDS011;63707;52.212;9.540;2023-10-31T14:49:39;7.88;;;5.60;;
75135;SDS011;63707;52.212;9.540;2023-10-31T14:52:05;8.73;;;4.88;;
75135;SDS011;63707;52.212;9.540;2023-10-31T14:54:33;12.27;;;5.28;;
75135;SDS011;63707;52.212;9.540;2023-10-31T14:57:00;6.85;;;5.13;;
75135;SDS011;63707;52.212;9.540;2023-10-31T14:59:27;9.32;;;5.57;;
75135;SDS011;63707;52.212;9.540;2023-10-31T15:01:53;9.70;;;5.50;;
75135;SDS011;63707;52.212;9.540;2023-10-31T15:04:18;9.35;;;5.90;;
75135;SDS011;63707;52.212;9.540;2023-10-31T15:06:44;9.98;;;5.68;;
75135;SDS011;63707;52.212;9.540;2023-10-31T15:09:09;10.73;;;6.40;;
75135;SDS011;63707;52.212;9.540;2023-10-31T15:11:35;13.05;;;7.10;;
75135;SDS011;63707;52.212;9.540;2023-10-31T15:14:01;11.15;;;6.95;;
75135;SDS011;63707;52.212;9.540;2023-10-31T15:16:28;14.93;;;7.63;;
75135;SDS011;63707;52.212;9.540;2023-10-31T15:18:53;11.15;;;7.30;;
75135;SDS011;63707;52.212;9.540;2023-10-31T15:21:19;25.00;;;11.77;;
75135;SDS011;63707;52.212;9.540;2023-10-31T15:23:45;20.90;;;10.90;;
75135;SDS011;63707;52.212;9.540;2023-10-31T15:26:11;18.55;;;9.70;;
75135;SDS011;63707;52.212;9.540;2023-10-31T15:28:38;16.52;;;9.65;;
75135;SDS011;63707;52.212;9.540;2023-10-31T15:31:04;28.88;;;15.25;;
75135;SDS011;63707;52.212;9.540;2023-10-31T15:33:32;8.55;;;5.22;;
75135;SDS011;63707;52.212;9.540;2023-10-31T15:35:57;7.55;;;5.57;;
75135;SDS011;63707;52.212;9.540;2023-10-31T15:38:23;8.65;;;4.57;;
75135;SDS011;63707;52.212;9.540;2023-10-31T15:40:48;7.57;;;3.50;;
75135;SDS011;63707;52.212;9.540;2023-10-31T15:43:14;5.53;;;3.17;;
75135;SDS011;63707;52.212;9.540;2023-10-31T15:45:39;5.72;;;3.10;;
75135;SDS011;63707;52.212;9.540;2023-10-31T15:48:05;4.57;;;2.10;;
75135;SDS011;63707;52.212;9.540;2023-10-31T15:50:34;5.63;;;3.60;;
75135;SDS011;63707;52.212;9.540;2023-10-31T15:52:59;7.53;;;4.72;;
75135;SDS011;63707;52.212;9.540;2023-10-31T15:55:25;3.13;;;1.98;;
75135;SDS011;63707;52.212;9.540;2023-10-31T15:57:50;9.43;;;5.75;;
75135;SDS011;63707;52.212;9.540;2023-10-31T16:00:16;5.55;;;3.38;;
75135;SDS011;63707;52.212;9.540;2023-10-31T16:02:41;5.30;;;2.83;;
75135;SDS011;63707;52.212;9.540;2023-10-31T16:05:07;2.83;;;1.40;;
75135;SDS011;63707;52.212;9.540;2023-10-31T16:07:34;3.65;;;1.70;;
75135;SDS011;63707;52.212;9.540;2023-10-31T16:10:02;3.88;;;2.47;;
75135;SDS011;63707;52.212;9.540;2023-10-31T16:12:28;5.90;;;4.05;;
75135;SDS011;63707;52.212;9.540;2023-10-31T16:14:54;3.88;;;2.53;;
75135;SDS011;63707;52.212;9.540;2023-10-31T16:17:19;84.22;;;32.63;;
75135;SDS011;63707;52.212;9.540;2023-10-31T16:19:44;8.43;;;4.47;;
75135;SDS011;63707;52.212;9.540;2023-10-31T16:22:12;3.83;;;2.30;;
75135;SDS011;63707;52.212;9.540;2023-10-31T16:24:39;5.13;;;2.85;;
75135;SDS011;63707;52.212;9.540;2023-10-31T16:27:06;7.93;;;2.97;;
75135;SDS011;63707;52.212;9.540;2023-10-31T16:29:32;5.07;;;2.83;;
75135;SDS011;63707;52.212;9.540;2023-10-31T16:31:58;4.75;;;3.05;;
75135;SDS011;63707;52.212;9.540;2023-10-31T16:34:23;7.22;;;3.55;;
75135;SDS011;63707;52.212;9.540;2023-10-31T16:36:49;3.83;;;1.73;;
75135;SDS011;63707;52.212;9.540;2023-10-31T16:39:14;3.60;;;2.60;;
75135;SDS011;63707;52.212;9.540;2023-10-31T16:41:41;4.40;;;2.40;;
75135;SDS011;63707;52.212;9.540;2023-10-31T16:44:07;5.57;;;2.42;;
75135;SDS011;63707;52.212;9.540;2023-10-31T16:46:33;5.25;;;3.53;;
75135;SDS011;63707;52.212;9.540;2023-10-31T16:48:58;5.70;;;3.58;;
75135;SDS011;63707;52.212;9.540;2023-10-31T16:51:25;4.30;;;2.60;;
75135;SDS011;63707;52.212;9.540;2023-10-31T16:53:50;2.67;;;1.80;;
75135;SDS011;63707;52.212;9.540;2023-10-31T16:56:16;5.00;;;2.38;;
75135;SDS011;63707;52.212;9.540;2023-10-31T16:58:43;4.03;;;2.42;;
75135;SDS011;63707;52.212;9.540;2023-10-31T17:01:11;7.78;;;2.88;;
75135;SDS011;63707;52.212;9.540;2023-10-31T17:03:37;4.45;;;2.90;;
75135;SDS011;63707;52.212;9.540;2023-10-31T17:06:03;5.43;;;3.15;;
75135;SDS011;63707;52.212;9.540;2023-10-31T17:08:29;6.88;;;2.67;;
75135;SDS011;63707;52.212;9.540;2023-10-31T17:10:55;4.38;;;2.47;;
75135;SDS011;63707;52.212;9.540;2023-10-31T17:13:20;6.30;;;3.33;;
75135;SDS011;63707;52.212;9.540;2023-10-31T17:15:47;10.35;;;4.70;;
75135;SDS011;63707;52.212;9.540;2023-10-31T17:18:12;12.75;;;6.05;;
75135;SDS011;63707;52.212;9.540;2023-10-31T17:20:40;13.45;;;6.72;;
75135;SDS011;63707;52.212;9.540;2023-10-31T17:23:06;9.90;;;5.03;;
75135;SDS011;63707;52.212;9.540;2023-10-31T17:25:31;11.15;;;5.32;;
75135;SDS011;63707;52.212;9.540;2023-10-31T17:27:57;11.35;;;5.90;;
75135;SDS011;63707;52.212;9.540;2023-10-31T17:30:23;13.15;;;6.97;;
75135;SDS011;63707;52.212;9.540;2023-10-31T17:32:50;18.95;;;9.65;;
75135;SDS011;63707;52.212;9.540;2023-10-31T17:35:15;13.95;;;8.60;;
75135;SDS011;63707;52.212;9.540;2023-10-31T17:37:41;20.80;;;10.40;;
75135;SDS011;63707;52.212;9.540;2023-10-31T17:40:07;20.73;;;9.40;;
75135;SDS011;63707;52.212;9.540;2023-10-31T17:42:34;20.17;;;9.88;;
75135;SDS011;63707;52.212;9.540;2023-10-31T17:45:00;22.13;;;11.55;;
75135;SDS011;63707;52.212;9.540;2023-10-31T17:47:25;22.92;;;10.77;;
75135;SDS011;63707;52.212;9.540;2023-10-31T17:49:52;33.75;;;16.33;;
75135;SDS011;63707;52.212;9.540;2023-10-31T17:52:18;34.72;;;20.48;;
75135;SDS011;63707;52.212;9.540;2023-10-31T17:54:43;35.78;;;18.92;;
75135;SDS011;63707;52.212;9.540;2023-10-31T17:57:09;28.73;;;13.65;;
75135;SDS011;63707;52.212;9.540;2023-10-31T17:59:35;33.05;;;17.73;;
75135;SDS011;63707;52.212;9.540;2023-10-31T18:02:02;28.77;;;12.95;;
75135;SDS011;63707;52.212;9.540;2023-10-31T18:04:28;23.13;;;13.13;;
75135;SDS011;63707;52.212;9.540;2023-10-31T18:06:56;26.63;;;13.80;;
75135;SDS011;63707;52.212;9.540;2023-10-31T18:09:21;27.65;;;16.30;;
75135;SDS011;63707;52.212;9.540;2023-10-31T18:11:46;23.77;;;13.07;;
75135;SDS011;63707;52.212;9.540;2023-10-31T18:14:12;26.95;;;13.20;;
75135;SDS011;63707;52.212;9.540;2023-10-31T18:16:37;22.75;;;12.43;;
75135;SDS011;63707;52.212;9.540;2023-10-31T18:19:03;36.97;;;16.52;;
75135;SDS011;63707;52.212;9.540;2023-10-31T18:21:29;36.85;;;16.42;;
75135;SDS011;63707;52.212;9.540;2023-10-31T18:23:57;23.25;;;12.40;;
75135;SDS011;63707;52.212;9.540;2023-10-31T18:26:22;24.15;;;13.23;;
75135;SDS011;63707;52.212;9.540;2023-10-31T18:28:48;37.47;;;25.05;;
75135;SDS011;63707;52.212;9.540;2023-10-31T18:31:15;23.23;;;12.43;;
75135;SDS011;63707;52.212;9.540;2023-10-31T18:33:41;28.38;;;14.00;;
75135;SDS011;63707;52.212;9.540;2023-10-31T18:36:07;27.27;;;12.80;;
75135;SDS011;63707;52.212;9.540;2023-10-31T18:38:33;24.58;;;11.80;;
75135;SDS011;63707;52.212;9.540;2023-10-31T18:41:01;23.42;;;11.35;;
75135;SDS011;63707;52.212;9.540;2023-10-31T18:43:26;23.45;;;11.57;;
75135;SDS011;63707;52.212;9.540;2023-10-31T18:45:52;26.88;;;12.60;;
75135;SDS011;63707;52.212;9.540;2023-10-31T18:48:18;24.65;;;12.38;;
75135;SDS011;63707;52.212;9.540;2023-10-31T18:50:43;25.55;;;11.85;;
75135;SDS011;63707;52.212;9.540;2023-10-31T18:53:09;23.35;;;10.73;;
75135;SDS011;63707;52.212;9.540;2023-10-31T18:55:36;23.20;;;11.02;;
75135;SDS011;63707;52.212;9.540;2023-10-31T18:58:03;20.17;;;10.70;;
75135;SDS011;63707;52.212;9.540;2023-10-31T19:00:29;19.45;;;10.70;;
75135;SDS011;63707;52.212;9.540;2023-10-31T19:02:54;19.05;;;10.65;;
75135;SDS011;63707;52.212;9.540;2023-10-31T19:05:20;23.35;;;12.52;;
75135;SDS011;63707;52.212;9.540;2023-10-31T19:07:46;25.80;;;12.25;;
75135;SDS011;63707;52.212;9.540;2023-10-31T19:10:11;19.65;;;11.40;;
75135;SDS011;63707;52.212;9.540;2023-10-31T19:12:37;21.60;;;10.93;;
75135;SDS011;63707;52.212;9.540;2023-10-31T19:15:05;24.92;;;11.00;;
75135;SDS011;63707;52.212;9.540;2023-10-31T19:17:31;21.85;;;10.27;;
75135;SDS011;63707;52.212;9.540;2023-10-31T19:19:56;23.90;;;10.13;;
75135;SDS011;63707;52.212;9.540;2023-10-31T19:22:22;18.77;;;10.15;;
75135;SDS011;63707;52.212;9.540;2023-10-31T19:24:47;20.05;;;10.15;;
75135;SDS011;63707;52.212;9.540;2023-10-31T19:27:15;19.98;;;9.68;;
75135;SDS011;63707;52.212;9.540;2023-10-31T19:29:41;21.33;;;9.50;;
75135;SDS011;63707;52.212;9.540;2023-10-31T19:32:07;17.77;;;9.25;;
75135;SDS011;63707;52.212;9.540;2023-10-31T19:34:33;12.85;;;8.25;;
75135;SDS011;63707;52.212;9.540;2023-10-31T19:36:59;13.60;;;7.65;;
75135;SDS011;63707;52.212;9.540;2023-10-31T19:39:24;19.27;;;8.80;;
75135;SDS011;63707;52.212;9.540;2023-10-31T19:41:51;19.63;;;8.65;;
75135;SDS011;63707;52.212;9.540;2023-10-31T19:44:16;40.22;;;14.05;;
75135;SDS011;63707;52.212;9.540;2023-10-31T19:46:42;57.22;;;20.55;;
75135;SDS011;63707;52.212;9.540;2023-10-31T19:49:09;32.78;;;15.10;;
75135;SDS011;63707;52.212;9.540;2023-10-31T19:51:34;18.08;;;9.23;;
75135;SDS011;63707;52.212;9.540;2023-10-31T19:54:00;19.80;;;8.90;;
75135;SDS011;63707;52.212;9.540;2023-10-31T19:56:25;20.15;;;9.10;;
75135;SDS011;63707;52.212;9.540;2023-10-31T19:58:51;16.90;;;8.70;;
75135;SDS011;63707;52.212;9.540;2023-10-31T20:01:16;19.58;;;9.82;;
75135;SDS011;63707;52.212;9.540;2023-10-31T20:03:42;24.88;;;12.10;;
75135;SDS011;63707;52.212;9.540;2023-10-31T20:06:09;24.10;;;11.35;;
75135;SDS011;63707;52.212;9.540;2023-10-31T20:08:35;27.10;;;12.30;;
75135;SDS011;63707;52.212;9.540;2023-10-31T20:11:01;23.70;;;11.05;;
75135;SDS011;63707;52.212;9.540;2023-10-31T20:13:27;24.00;;;13.10;;
75135;SDS011;63707;52.212;9.540;2023-10-31T20:15:53;22.73;;;11.90;;
75135;SDS011;63707;52.212;9.540;2023-10-31T20:18:19;24.08;;;13.20;;
75135;SDS011;63707;52.212;9.540;2023-10-31T20:20:47;24.67;;;12.27;;
75135;SDS011;63707;52.212;9.540;2023-10-31T20:23:14;25.77;;;12.25;;
75135;SDS011;63707;52.212;9.540;2023-10-31T20:25:39;38.92;;;19.00;;
75135;SDS011;63707;52.212;9.540;2023-10-31T20:28:06;41.53;;;18.63;;
75135;SDS011;63707;52.212;9.540;2023-10-31T20:30:31;30.02;;;14.77;;
75135;SDS011;63707;52.212;9.540;2023-10-31T20:32:57;44.53;;;26.98;;
75135;SDS011;63707;52.212;9.540;2023-10-31T20:35:23;28.40;;;16.38;;
75135;SDS011;63707;52.212;9.540;2023-10-31T20:37:49;23.70;;;13.60;;
75135;SDS011;63707;52.212;9.540;2023-10-31T20:40:16;24.27;;;13.25;;
75135;SDS011;63707;52.212;9.540;2023-10-31T20:42:41;22.58;;;13.88;;
75135;SDS011;63707;52.212;9.540;2023-10-31T20:45:08;22.85;;;12.68;;
75135;SDS011;63707;52.212;9.540;2023-10-31T20:47:34;20.73;;;11.10;;
75135;SDS011;63707;52.212;9.540;2023-10-31T20:50:00;21.10;;;11.80;;
75135;SDS011;63707;52.212;9.540;2023-10-31T20:52:25;24.35;;;13.30;;
75135;SDS011;63707;52.212;9.540;2023-10-31T20:54:51;21.48;;;11.73;;
75135;SDS011;63707;52.212;9.540;2023-10-31T20:57:18;22.80;;;12.35;;
75135;SDS011;63707;52.212;9.540;2023-10-31T20:59:43;21.13;;;10.48;;
75135;SDS011;63707;52.212;9.540;2023-10-31T21:02:09;22.70;;;10.88;;
75135;SDS011;63707;52.212;9.540;2023-10-31T21:04:35;23.25;;;10.85;;
75135;SDS011;63707;52.212;9.540;2023-10-31T21:07:01;24.13;;;14.52;;
75135;SDS011;63707;52.212;9.540;2023-10-31T21:09:27;29.75;;;14.50;;
75135;SDS011;63707;52.212;9.540;2023-10-31T21:11:52;31.83;;;16.17;;
75135;SDS011;63707;52.212;9.540;2023-10-31T21:14:19;34.53;;;17.55;;
75135;SDS011;63707;52.212;9.540;2023-10-31T21:16:44;35.15;;;18.58;;
75135;SDS011;63707;52.212;9.540;2023-10-31T21:19:10;33.95;;;18.65;;
75135;SDS011;63707;52.212;9.540;2023-10-31T21:21:35;38.60;;;20.73;;
75135;SDS011;63707;52.212;9.540;2023-10-31T21:24:01;43.40;;;21.83;;
75135;SDS011;63707;52.212;9.540;2023-10-31T21:26:27;40.45;;;21.20;;
75135;SDS011;63707;52.212;9.540;2023-10-31T21:28:53;48.53;;;21.98;;
75135;SDS011;63707;52.212;9.540;2023-10-31T21:31:20;44.60;;;22.38;;
75135;SDS011;63707;52.212;9.540;2023-10-31T21:33:45;43.05;;;21.70;;
75135;SDS011;63707;52.212;9.540;2023-10-31T21:36:11;43.65;;;20.98;;
75135;SDS011;63707;52.212;9.540;2023-10-31T21:38:36;45.25;;;20.67;;
75135;SDS011;63707;52.212;9.540;2023-10-31T21:41:03;42.20;;;22.58;;
75135;SDS011;63707;52.212;9.540;2023-10-31T21:43:30;47.38;;;21.38;;
75135;SDS011;63707;52.212;9.540;2023-10-31T21:45:55;44.63;;;21.67;;
75135;SDS011;63707;52.212;9.540;2023-10-31T21:48:22;45.47;;;22.33;;
75135;SDS011;63707;52.212;9.540;2023-10-31T21:50:48;43.75;;;21.95;;
75135;SDS011;63707;52.212;9.540;2023-10-31T21:53:13;47.83;;;21.73;;
75135;SDS011;63707;52.212;9.540;2023-10-31T21:55:39;47.50;;;21.75;;
75135;SDS011;63707;52.212;9.540;2023-10-31T21:58:05;45.95;;;20.17;;
75135;SDS011;63707;52.212;9.540;2023-10-31T22:00:30;43.63;;;21.58;;
75135;SDS011;63707;52.212;9.540;2023-10-31T22:02:56;44.10;;;21.17;;
75135;SDS011;63707;52.212;9.540;2023-10-31T22:05:22;45.90;;;21.95;;
75135;SDS011;63707;52.212;9.540;2023-10-31T22:07:48;42.95;;;20.80;;
75135;SDS011;63707;52.212;9.540;2023-10-31T22:10:13;40.25;;;19.83;;
75135;SDS011;63707;52.212;9.540;2023-10-31T22:12:39;35.88;;;19.95;;
75135;SDS011;63707;52.212;9.540;2023-10-31T22:15:05;57.58;;;26.15;;
75135;SDS011;63707;52.212;9.540;2023-10-31T22:17:31;39.00;;;19.67;;
75135;SDS011;63707;52.212;9.540;2023-10-31T22:19:56;42.38;;;21.80;;
75135;SDS011;63707;52.212;9.540;2023-10-31T22:22:24;43.92;;;22.52;;
75135;SDS011;63707;52.212;9.540;2023-10-31T22:24:50;36.03;;;19.75;;
75135;SDS011;63707;52.212;9.540;2023-10-31T22:27:15;44.95;;;20.58;;
75135;SDS011;63707;52.212;9.540;2023-10-31T22:29:41;38.85;;;19.75;;
75135;SDS011;63707;52.212;9.540;2023-10-31T22:32:06;37.00;;;18.83;;
75135;SDS011;63707;52.212;9.540;2023-10-31T22:34:32;34.78;;;17.58;;
75135;SDS011;63707;52.212;9.540;2023-10-31T22:36:57;32.83;;;16.50;;
75135;SDS011;63707;52.212;9.540;2023-10-31T22:39:24;30.85;;;15.77;;
75135;SDS011;63707;52.212;9.540;2023-10-31T22:41:51;32.88;;;17.40;;
75135;SDS011;63707;52.212;9.540;2023-10-31T22:44:16;36.75;;;17.00;;
75135;SDS011;63707;52.212;9.540;2023-10-31T22:46:42;29.67;;;15.80;;
75135;SDS011;63707;52.212;9.540;2023-10-31T22:49:08;33.58;;;16.15;;
75135;SDS011;63707;52.212;9.540;2023-10-31T22:51:33;30.38;;;15.10;;
75135;SDS011;63707;52.212;9.540;2023-10-31T22:53:59;28.75;;;15.32;;
75135;SDS011;63707;52.212;9.540;2023-10-31T22:56:26;28.08;;;14.32;;
75135;SDS011;63707;52.212;9.540;2023-10-31T22:58:53;27.70;;;13.57;;
75135;SDS011;63707;52.212;9.540;2023-10-31T23:01:19;21.35;;;12.63;;
75135;SDS011;63707;52.212;9.540;2023-10-31T23:03:44;22.35;;;12.93;;
75135;SDS011;63707;52.212;9.540;2023-10-31T23:06:11;23.70;;;12.40;;
75135;SDS011;63707;52.212;9.540;2023-10-31T23:08:36;23.58;;;12.10;;
75135;SDS011;63707;52.212;9.540;2023-10-31T23:11:03;23.65;;;12.02;;
75135;SDS011;63707;52.212;9.540;2023-10-31T23:13:30;21.13;;;12.15;;
75135;SDS011;63707;52.212;9.540;2023-10-31T23:15:55;20.80;;;11.50;;
75135;SDS011;63707;52.212;9.540;2023-10-31T23:18:21;19.80;;;11.40;;
75135;SDS011;63707;52.212;9.540;2023-10-31T23:20:46;16.15;;;10.52;;
75135;SDS011;63707;52.212;9.540;2023-10-31T23:23:12;19.50;;;9.98;;
75135;SDS011;63707;52.212;9.540;2023-10-31T23:25:37;17.92;;;10.13;;
75135;SDS011;63707;52.212;9.540;2023-10-31T23:28:04;16.92;;;10.50;;
75135;SDS011;63707;52.212;9.540;2023-10-31T23:30:31;18.00;;;10.48;;
75135;SDS011;63707;52.212;9.540;2023-10-31T23:32:56;19.83;;;11.82;;
75135;SDS011;63707;52.212;9.540;2023-10-31T23:35:21;18.83;;;11.25;;
75135;SDS011;63707;52.212;9.540;2023-10-31T23:37:47;20.73;;;11.70;;
75135;SDS011;63707;52.212;9.540;2023-10-31T23:40:12;23.38;;;12.27;;
75135;SDS011;63707;52.212;9.540;2023-10-31T23:42:39;18.73;;;11.60;;
75135;SDS011;63707;52.212;9.540;2023-10-31T23:45:04;23.67;;;12.77;;
75135;SDS011;63707;52.212;9.540;2023-10-31T23:47:32;21.63;;;12.07;;
75135;SDS011;63707;52.212;9.540;2023-10-31T23:49:57;19.83;;;11.43;;
75135;SDS011;63707;52.212;9.540;2023-10-31T23:52:23;23.73;;;11.63;;
75135;SDS011;63707;52.212;9.540;2023-10-31T23:54:49;25.67;;;13.45;;
75135;SDS011;63707;52.212;9.540;2023-10-31T23:57:15;23.10;;;12.63;;
75135;SDS011;63707;52.212;9.540;2023-10-31T23:59:40;22.02;;;12.73;;
